sensor_id;sensor_type;location;lat;lon;timestamp;P1;durP1;ratioP1;P2;durP2;ratioP2
40152;SDS011;26371;56.992;23.912;2022-12-29T00:01:48;35.22;;;18.48;;
40152;SDS011;26371;56.992;23.912;2022-12-29T00:04:20;35.60;;;18.47;;
40152;SDS011;26371;56.992;23.912;2022-12-29T00:06:52;28.40;;;17.15;;
40152;SDS011;26371;56.992;23.912;2022-12-29T00:09:34;32.80;;;16.77;;
40152;SDS011;26371;56.992;23.912;2022-12-29T00:12:19;31.98;;;17.10;;
40152;SDS011;26371;56.992;23.912;2022-12-29T00:14:50;30.50;;;17.10;;
40152;SDS011;26371;56.992;23.912;2022-12-29T00:17:39;30.05;;;16.30;;
40152;SDS011;26371;56.992;23.912;2022-12-29T00:20:17;32.70;;;17.92;;
40152;SDS011;26371;56.992;23.912;2022-12-29T00:23:08;33.00;;;17.88;;
40152;SDS011;26371;56.992;23.912;2022-12-29T00:26:02;34.20;;;19.55;;
40152;SDS011;26371;56.992;23.912;2022-12-29T00:29:09;38.80;;;19.88;;
40152;SDS011;26371;56.992;23.912;2022-12-29T00:32:03;32.17;;;17.38;;
40152;SDS011;26371;56.992;23.912;2022-12-29T00:34:56;36.78;;;19.33;;
40152;SDS011;26371;56.992;23.912;2022-12-29T00:41:27;36.60;;;19.00;;
40152;SDS011;26371;56.992;23.912;2022-12-29T00:44:17;34.53;;;19.35;;
40152;SDS011;26371;56.992;23.912;2022-12-29T00:46:53;40.35;;;20.20;;
40152;SDS011;26371;56.992;23.912;2022-12-29T00:49:23;36.03;;;19.15;;
40152;SDS011;26371;56.992;23.912;2022-12-29T00:51:58;39.58;;;20.58;;
40152;SDS011;26371;56.992;23.912;2022-12-29T00:54:36;34.33;;;18.13;;
40152;SDS011;26371;56.992;23.912;2022-12-29T00:57:22;35.92;;;18.63;;
40152;SDS011;26371;56.992;23.912;2022-12-29T00:59:55;33.45;;;17.98;;
40152;SDS011;26371;56.992;23.912;2022-12-29T01:02:27;36.20;;;18.77;;
40152;SDS011;26371;56.992;23.912;2022-12-29T01:05:04;36.92;;;18.67;;
40152;SDS011;26371;56.992;23.912;2022-12-29T01:07:39;33.28;;;17.75;;
40152;SDS011;26371;56.992;23.912;2022-12-29T01:10:21;35.60;;;18.20;;
40152;SDS011;26371;56.992;23.912;2022-12-29T01:12:54;32.78;;;18.02;;
40152;SDS011;26371;56.992;23.912;2022-12-29T01:15:27;32.70;;;17.73;;
40152;SDS011;26371;56.992;23.912;2022-12-29T01:18:04;34.92;;;18.35;;
40152;SDS011;26371;56.992;23.912;2022-12-29T01:20:34;29.80;;;17.38;;
40152;SDS011;26371;56.992;23.912;2022-12-29T01:23:08;34.92;;;18.52;;
40152;SDS011;26371;56.992;23.912;2022-12-29T01:25:40;37.90;;;19.85;;
40152;SDS011;26371;56.992;23.912;2022-12-29T01:28:10;35.00;;;18.60;;
40152;SDS011;26371;56.992;23.912;2022-12-29T01:30:41;39.08;;;19.42;;
40152;SDS011;26371;56.992;23.912;2022-12-29T01:33:14;37.60;;;18.35;;
40152;SDS011;26371;56.992;23.912;2022-12-29T01:35:51;36.72;;;19.27;;
40152;SDS011;26371;56.992;23.912;2022-12-29T01:38:24;38.47;;;19.58;;
40152;SDS011;26371;56.992;23.912;2022-12-29T01:40:55;36.47;;;19.45;;
40152;SDS011;26371;56.992;23.912;2022-12-29T01:43:40;39.50;;;20.00;;
40152;SDS011;26371;56.992;23.912;2022-12-29T01:46:16;37.83;;;18.13;;
40152;SDS011;26371;56.992;23.912;2022-12-29T01:48:56;41.08;;;20.35;;
40152;SDS011;26371;56.992;23.912;2022-12-29T01:51:36;37.35;;;18.95;;
40152;SDS011;26371;56.992;23.912;2022-12-29T01:54:12;39.72;;;19.40;;
40152;SDS011;26371;56.992;23.912;2022-12-29T01:56:48;37.25;;;18.95;;
40152;SDS011;26371;56.992;23.912;2022-12-29T01:59:23;40.90;;;20.42;;
40152;SDS011;26371;56.992;23.912;2022-12-29T02:01:58;45.55;;;21.15;;
40152;SDS011;26371;56.992;23.912;2022-12-29T02:04:31;44.63;;;20.10;;
40152;SDS011;26371;56.992;23.912;2022-12-29T02:07:19;39.90;;;19.45;;
40152;SDS011;26371;56.992;23.912;2022-12-29T02:09:55;40.53;;;19.00;;
40152;SDS011;26371;56.992;23.912;2022-12-29T02:12:29;41.88;;;19.30;;
40152;SDS011;26371;56.992;23.912;2022-12-29T02:15:00;47.13;;;20.90;;
40152;SDS011;26371;56.992;23.912;2022-12-29T02:23:53;52.75;;;21.27;;
40152;SDS011;26371;56.992;23.912;2022-12-29T02:26:55;49.35;;;22.08;;
40152;SDS011;26371;56.992;23.912;2022-12-29T02:29:58;46.80;;;20.70;;
40152;SDS011;26371;56.992;23.912;2022-12-29T02:32:42;54.13;;;21.52;;
40152;SDS011;26371;56.992;23.912;2022-12-29T02:35:27;49.28;;;20.95;;
40152;SDS011;26371;56.992;23.912;2022-12-29T02:38:12;50.28;;;21.75;;
40152;SDS011;26371;56.992;23.912;2022-12-29T02:41:02;48.03;;;21.63;;
40152;SDS011;26371;56.992;23.912;2022-12-29T02:43:37;48.17;;;21.27;;
40152;SDS011;26371;56.992;23.912;2022-12-29T02:46:13;54.70;;;21.92;;
40152;SDS011;26371;56.992;23.912;2022-12-29T02:49:03;51.92;;;21.88;;
40152;SDS011;26371;56.992;23.912;2022-12-29T02:51:46;47.42;;;19.98;;
40152;SDS011;26371;56.992;23.912;2022-12-29T02:54:26;46.50;;;21.10;;
40152;SDS011;26371;56.992;23.912;2022-12-29T02:57:28;50.67;;;20.10;;
40152;SDS011;26371;56.992;23.912;2022-12-29T03:00:04;45.22;;;19.25;;
40152;SDS011;26371;56.992;23.912;2022-12-29T03:05:55;48.60;;;19.45;;
40152;SDS011;26371;56.992;23.912;2022-12-29T03:08:35;43.17;;;18.60;;
40152;SDS011;26371;56.992;23.912;2022-12-29T03:11:13;44.72;;;18.73;;
40152;SDS011;26371;56.992;23.912;2022-12-29T03:14:00;46.97;;;19.38;;
40152;SDS011;26371;56.992;23.912;2022-12-29T03:16:58;46.25;;;19.27;;
40152;SDS011;26371;56.992;23.912;2022-12-29T03:19:44;40.67;;;17.55;;
40152;SDS011;26371;56.992;23.912;2022-12-29T03:22:21;45.72;;;18.85;;
40152;SDS011;26371;56.992;23.912;2022-12-29T03:25:05;42.08;;;17.77;;
40152;SDS011;26371;56.992;23.912;2022-12-29T03:27:39;44.05;;;16.95;;
40152;SDS011;26371;56.992;23.912;2022-12-29T03:30:23;37.85;;;17.23;;
40152;SDS011;26371;56.992;23.912;2022-12-29T03:33:12;43.95;;;19.25;;
40152;SDS011;26371;56.992;23.912;2022-12-29T03:35:52;44.90;;;18.83;;
40152;SDS011;26371;56.992;23.912;2022-12-29T03:38:35;41.92;;;19.33;;
40152;SDS011;26371;56.992;23.912;2022-12-29T03:41:16;38.90;;;17.75;;
40152;SDS011;26371;56.992;23.912;2022-12-29T03:43:48;38.97;;;17.85;;
40152;SDS011;26371;56.992;23.912;2022-12-29T03:46:38;45.92;;;18.67;;
40152;SDS011;26371;56.992;23.912;2022-12-29T03:49:13;45.25;;;17.95;;
40152;SDS011;26371;56.992;23.912;2022-12-29T03:51:46;39.08;;;18.33;;
40152;SDS011;26371;56.992;23.912;2022-12-29T03:54:20;38.47;;;18.13;;
40152;SDS011;26371;56.992;23.912;2022-12-29T03:56:51;41.67;;;18.13;;
40152;SDS011;26371;56.992;23.912;2022-12-29T03:59:40;39.35;;;17.65;;
40152;SDS011;26371;56.992;23.912;2022-12-29T04:02:10;37.15;;;17.73;;
40152;SDS011;26371;56.992;23.912;2022-12-29T04:04:44;38.75;;;16.58;;
40152;SDS011;26371;56.992;23.912;2022-12-29T04:07:18;35.17;;;17.10;;
40152;SDS011;26371;56.992;23.912;2022-12-29T04:10:02;34.15;;;16.45;;
40152;SDS011;26371;56.992;23.912;2022-12-29T04:12:37;33.28;;;15.35;;
40152;SDS011;26371;56.992;23.912;2022-12-29T04:15:11;36.63;;;17.73;;
40152;SDS011;26371;56.992;23.912;2022-12-29T04:17:50;32.63;;;15.88;;
40152;SDS011;26371;56.992;23.912;2022-12-29T04:20:37;32.35;;;15.52;;
40152;SDS011;26371;56.992;23.912;2022-12-29T04:23:23;30.20;;;14.50;;
40152;SDS011;26371;56.992;23.912;2022-12-29T04:26:23;33.20;;;15.52;;
40152;SDS011;26371;56.992;23.912;2022-12-29T04:29:18;28.85;;;14.45;;
40152;SDS011;26371;56.992;23.912;2022-12-29T04:32:14;29.17;;;13.95;;
40152;SDS011;26371;56.992;23.912;2022-12-29T04:35:09;29.77;;;14.77;;
40152;SDS011;26371;56.992;23.912;2022-12-29T04:37:49;28.83;;;14.77;;
40152;SDS011;26371;56.992;23.912;2022-12-29T04:40:34;28.73;;;13.60;;
40152;SDS011;26371;56.992;23.912;2022-12-29T04:43:12;31.48;;;15.00;;
40152;SDS011;26371;56.992;23.912;2022-12-29T04:46:03;30.42;;;13.73;;
40152;SDS011;26371;56.992;23.912;2022-12-29T04:48:48;29.60;;;14.32;;
40152;SDS011;26371;56.992;23.912;2022-12-29T04:51:59;31.92;;;14.77;;
40152;SDS011;26371;56.992;23.912;2022-12-29T04:54:36;25.48;;;13.63;;
40152;SDS011;26371;56.992;23.912;2022-12-29T04:57:17;29.65;;;14.38;;
40152;SDS011;26371;56.992;23.912;2022-12-29T04:59:56;30.30;;;14.23;;
40152;SDS011;26371;56.992;23.912;2022-12-29T05:02:28;29.30;;;13.43;;
40152;SDS011;26371;56.992;23.912;2022-12-29T05:05:04;29.73;;;14.15;;
40152;SDS011;26371;56.992;23.912;2022-12-29T05:07:46;30.13;;;13.82;;
40152;SDS011;26371;56.992;23.912;2022-12-29T05:10:22;33.25;;;14.20;;
40152;SDS011;26371;56.992;23.912;2022-12-29T05:13:06;31.98;;;13.85;;
40152;SDS011;26371;56.992;23.912;2022-12-29T05:15:39;31.63;;;15.50;;
40152;SDS011;26371;56.992;23.912;2022-12-29T05:18:16;30.35;;;13.73;;
40152;SDS011;26371;56.992;23.912;2022-12-29T05:21:05;32.10;;;15.18;;
40152;SDS011;26371;56.992;23.912;2022-12-29T05:23:38;33.75;;;14.68;;
40152;SDS011;26371;56.992;23.912;2022-12-29T05:29:05;33.63;;;14.40;;
40152;SDS011;26371;56.992;23.912;2022-12-29T05:31:39;31.70;;;14.27;;
40152;SDS011;26371;56.992;23.912;2022-12-29T05:34:21;38.72;;;15.88;;
40152;SDS011;26371;56.992;23.912;2022-12-29T05:36:50;36.03;;;14.98;;
40152;SDS011;26371;56.992;23.912;2022-12-29T05:39:25;32.33;;;14.90;;
40152;SDS011;26371;56.992;23.912;2022-12-29T05:42:02;34.50;;;14.18;;
40152;SDS011;26371;56.992;23.912;2022-12-29T05:45:05;33.65;;;14.27;;
40152;SDS011;26371;56.992;23.912;2022-12-29T05:48:18;34.75;;;15.25;;
40152;SDS011;26371;56.992;23.912;2022-12-29T05:51:17;33.95;;;14.07;;
40152;SDS011;26371;56.992;23.912;2022-12-29T05:54:06;32.50;;;14.80;;
40152;SDS011;26371;56.992;23.912;2022-12-29T05:56:40;36.33;;;16.05;;
40152;SDS011;26371;56.992;23.912;2022-12-29T05:59:15;34.42;;;15.38;;
40152;SDS011;26371;56.992;23.912;2022-12-29T06:01:47;34.97;;;15.27;;
40152;SDS011;26371;56.992;23.912;2022-12-29T06:04:26;33.92;;;15.73;;
40152;SDS011;26371;56.992;23.912;2022-12-29T06:07:15;33.90;;;14.75;;
40152;SDS011;26371;56.992;23.912;2022-12-29T06:10:04;33.80;;;13.95;;
40152;SDS011;26371;56.992;23.912;2022-12-29T06:13:01;37.65;;;15.25;;
40152;SDS011;26371;56.992;23.912;2022-12-29T06:15:36;41.33;;;15.82;;
40152;SDS011;26371;56.992;23.912;2022-12-29T06:18:12;39.35;;;16.05;;
40152;SDS011;26371;56.992;23.912;2022-12-29T06:20:58;40.75;;;15.25;;
40152;SDS011;26371;56.992;23.912;2022-12-29T06:23:32;34.53;;;15.43;;
40152;SDS011;26371;56.992;23.912;2022-12-29T06:26:14;44.38;;;16.25;;
40152;SDS011;26371;56.992;23.912;2022-12-29T06:29:09;41.60;;;16.73;;
40152;SDS011;26371;56.992;23.912;2022-12-29T06:31:44;43.90;;;17.00;;
40152;SDS011;26371;56.992;23.912;2022-12-29T06:34:29;41.33;;;15.57;;
40152;SDS011;26371;56.992;23.912;2022-12-29T06:37:06;42.05;;;17.45;;
40152;SDS011;26371;56.992;23.912;2022-12-29T06:39:45;44.95;;;18.92;;
40152;SDS011;26371;56.992;23.912;2022-12-29T06:42:16;45.58;;;18.30;;
40152;SDS011;26371;56.992;23.912;2022-12-29T06:45:11;35.95;;;15.95;;
40152;SDS011;26371;56.992;23.912;2022-12-29T06:47:56;38.28;;;17.08;;
40152;SDS011;26371;56.992;23.912;2022-12-29T06:50:48;37.42;;;16.15;;
40152;SDS011;26371;56.992;23.912;2022-12-29T06:53:36;42.38;;;16.83;;
40152;SDS011;26371;56.992;23.912;2022-12-29T06:56:10;43.97;;;17.55;;
40152;SDS011;26371;56.992;23.912;2022-12-29T06:58:46;36.03;;;15.07;;
40152;SDS011;26371;56.992;23.912;2022-12-29T07:01:24;47.40;;;17.33;;
40152;SDS011;26371;56.992;23.912;2022-12-29T07:04:03;40.92;;;15.77;;
40152;SDS011;26371;56.992;23.912;2022-12-29T07:06:34;35.55;;;14.80;;
40152;SDS011;26371;56.992;23.912;2022-12-29T07:09:14;41.80;;;16.45;;
40152;SDS011;26371;56.992;23.912;2022-12-29T07:11:49;40.67;;;16.17;;
40152;SDS011;26371;56.992;23.912;2022-12-29T07:14:19;45.05;;;17.35;;
40152;SDS011;26371;56.992;23.912;2022-12-29T07:16:50;35.92;;;16.42;;
40152;SDS011;26371;56.992;23.912;2022-12-29T07:19:23;42.28;;;17.15;;
40152;SDS011;26371;56.992;23.912;2022-12-29T07:22:01;36.42;;;15.52;;
40152;SDS011;26371;56.992;23.912;2022-12-29T07:24:51;38.35;;;15.48;;
40152;SDS011;26371;56.992;23.912;2022-12-29T07:27:48;41.38;;;15.27;;
40152;SDS011;26371;56.992;23.912;2022-12-29T07:30:29;44.45;;;17.17;;
40152;SDS011;26371;56.992;23.912;2022-12-29T07:33:07;36.75;;;15.40;;
40152;SDS011;26371;56.992;23.912;2022-12-29T07:35:40;43.05;;;16.92;;
40152;SDS011;26371;56.992;23.912;2022-12-29T07:38:11;37.13;;;15.50;;
40152;SDS011;26371;56.992;23.912;2022-12-29T07:40:46;38.90;;;15.05;;
40152;SDS011;26371;56.992;23.912;2022-12-29T07:43:29;36.50;;;14.98;;
40152;SDS011;26371;56.992;23.912;2022-12-29T07:46:23;35.67;;;13.48;;
40152;SDS011;26371;56.992;23.912;2022-12-29T07:49:24;36.33;;;14.30;;
40152;SDS011;26371;56.992;23.912;2022-12-29T07:52:04;35.17;;;14.48;;
40152;SDS011;26371;56.992;23.912;2022-12-29T07:54:36;32.40;;;14.25;;
40152;SDS011;26371;56.992;23.912;2022-12-29T07:57:14;35.90;;;14.98;;
40152;SDS011;26371;56.992;23.912;2022-12-29T08:00:00;34.20;;;13.27;;
40152;SDS011;26371;56.992;23.912;2022-12-29T08:02:41;34.90;;;14.05;;
40152;SDS011;26371;56.992;23.912;2022-12-29T08:05:36;28.70;;;12.80;;
40152;SDS011;26371;56.992;23.912;2022-12-29T08:08:08;31.65;;;12.50;;
40152;SDS011;26371;56.992;23.912;2022-12-29T08:10:50;34.33;;;12.90;;
40152;SDS011;26371;56.992;23.912;2022-12-29T08:16:49;25.85;;;11.77;;
40152;SDS011;26371;56.992;23.912;2022-12-29T08:19:27;29.40;;;13.07;;
40152;SDS011;26371;56.992;23.912;2022-12-29T08:22:25;26.08;;;11.65;;
40152;SDS011;26371;56.992;23.912;2022-12-29T08:24:59;24.38;;;11.30;;
40152;SDS011;26371;56.992;23.912;2022-12-29T08:27:38;23.25;;;11.02;;
40152;SDS011;26371;56.992;23.912;2022-12-29T08:30:24;21.23;;;10.13;;
40152;SDS011;26371;56.992;23.912;2022-12-29T08:33:03;27.17;;;11.52;;
40152;SDS011;26371;56.992;23.912;2022-12-29T08:35:58;25.00;;;10.15;;
40152;SDS011;26371;56.992;23.912;2022-12-29T08:38:41;21.17;;;10.20;;
40152;SDS011;26371;56.992;23.912;2022-12-29T08:44:33;114.90;;;47.63;;
40152;SDS011;26371;56.992;23.912;2022-12-29T08:47:12;48.97;;;24.48;;
40152;SDS011;26371;56.992;23.912;2022-12-29T08:50:12;29.63;;;13.70;;
40152;SDS011;26371;56.992;23.912;2022-12-29T08:52:53;31.90;;;16.08;;
40152;SDS011;26371;56.992;23.912;2022-12-29T08:55:31;30.88;;;15.27;;
40152;SDS011;26371;56.992;23.912;2022-12-29T08:58:02;31.95;;;16.75;;
40152;SDS011;26371;56.992;23.912;2022-12-29T09:00:48;47.97;;;25.90;;
40152;SDS011;26371;56.992;23.912;2022-12-29T09:04:03;39.00;;;18.92;;
40152;SDS011;26371;56.992;23.912;2022-12-29T09:06:48;48.95;;;27.85;;
40152;SDS011;26371;56.992;23.912;2022-12-29T09:09:31;68.30;;;39.15;;
40152;SDS011;26371;56.992;23.912;2022-12-29T09:12:17;64.95;;;27.95;;
40152;SDS011;26371;56.992;23.912;2022-12-29T09:14:58;37.17;;;16.25;;
40152;SDS011;26371;56.992;23.912;2022-12-29T09:18:09;30.38;;;15.38;;
40152;SDS011;26371;56.992;23.912;2022-12-29T09:20:59;27.95;;;16.23;;
40152;SDS011;26371;56.992;23.912;2022-12-29T09:23:44;23.48;;;11.73;;
40152;SDS011;26371;56.992;23.912;2022-12-29T09:26:42;24.40;;;11.35;;
40152;SDS011;26371;56.992;23.912;2022-12-29T09:29:24;21.63;;;11.32;;
40152;SDS011;26371;56.992;23.912;2022-12-29T09:32:13;23.48;;;11.68;;
40152;SDS011;26371;56.992;23.912;2022-12-29T09:34:51;23.85;;;11.88;;
40152;SDS011;26371;56.992;23.912;2022-12-29T09:37:34;24.50;;;11.43;;
40152;SDS011;26371;56.992;23.912;2022-12-29T09:40:10;20.50;;;10.65;;
40152;SDS011;26371;56.992;23.912;2022-12-29T09:42:56;22.85;;;11.75;;
40152;SDS011;26371;56.992;23.912;2022-12-29T09:46:18;21.05;;;11.23;;
40152;SDS011;26371;56.992;23.912;2022-12-29T09:49:13;23.50;;;11.52;;
40152;SDS011;26371;56.992;23.912;2022-12-29T09:52:01;28.15;;;13.18;;
40152;SDS011;26371;56.992;23.912;2022-12-29T09:54:45;25.05;;;12.45;;
40152;SDS011;26371;56.992;23.912;2022-12-29T09:57:35;26.60;;;13.60;;
40152;SDS011;26371;56.992;23.912;2022-12-29T10:00:11;25.77;;;13.30;;
40152;SDS011;26371;56.992;23.912;2022-12-29T10:02:48;23.38;;;12.88;;
40152;SDS011;26371;56.992;23.912;2022-12-29T10:05:26;23.30;;;11.85;;
40152;SDS011;26371;56.992;23.912;2022-12-29T10:08:03;24.67;;;11.90;;
40152;SDS011;26371;56.992;23.912;2022-12-29T10:10:54;21.92;;;10.85;;
40152;SDS011;26371;56.992;23.912;2022-12-29T10:17:12;18.75;;;10.73;;
40152;SDS011;26371;56.992;23.912;2022-12-29T10:20:02;18.50;;;10.35;;
40152;SDS011;26371;56.992;23.912;2022-12-29T10:23:12;18.65;;;9.80;;
40152;SDS011;26371;56.992;23.912;2022-12-29T10:26:09;21.23;;;9.60;;
40152;SDS011;26371;56.992;23.912;2022-12-29T10:28:52;20.15;;;10.25;;
40152;SDS011;26371;56.992;23.912;2022-12-29T10:31:54;22.45;;;10.30;;
40152;SDS011;26371;56.992;23.912;2022-12-29T10:34:53;19.48;;;10.57;;
40152;SDS011;26371;56.992;23.912;2022-12-29T10:37:48;20.55;;;10.07;;
40152;SDS011;26371;56.992;23.912;2022-12-29T10:41:41;17.52;;;9.80;;
40152;SDS011;26371;56.992;23.912;2022-12-29T10:44:46;21.15;;;10.05;;
40152;SDS011;26371;56.992;23.912;2022-12-29T10:47:57;15.70;;;8.73;;
40152;SDS011;26371;56.992;23.912;2022-12-29T10:51:15;17.60;;;9.45;;
40152;SDS011;26371;56.992;23.912;2022-12-29T10:54:21;18.05;;;9.55;;
40152;SDS011;26371;56.992;23.912;2022-12-29T10:57:34;18.95;;;9.77;;
40152;SDS011;26371;56.992;23.912;2022-12-29T11:01:09;18.77;;;10.52;;
40152;SDS011;26371;56.992;23.912;2022-12-29T11:05:03;19.67;;;10.48;;
40152;SDS011;26371;56.992;23.912;2022-12-29T11:07:18;18.65;;;9.75;;
40152;SDS011;26371;56.992;23.912;2022-12-29T11:16:36;18.65;;;10.13;;
40152;SDS011;26371;56.992;23.912;2022-12-29T11:19:21;18.30;;;9.60;;
40152;SDS011;26371;56.992;23.912;2022-12-29T11:22:13;19.08;;;9.85;;
40152;SDS011;26371;56.992;23.912;2022-12-29T11:25:10;18.20;;;9.73;;
40152;SDS011;26371;56.992;23.912;2022-12-29T11:28:00;20.73;;;9.65;;
40152;SDS011;26371;56.992;23.912;2022-12-29T11:30:38;18.33;;;9.80;;
40152;SDS011;26371;56.992;23.912;2022-12-29T11:33:36;18.40;;;9.32;;
40152;SDS011;26371;56.992;23.912;2022-12-29T11:36:16;16.30;;;9.05;;
40152;SDS011;26371;56.992;23.912;2022-12-29T11:38:51;15.88;;;9.45;;
40152;SDS011;26371;56.992;23.912;2022-12-29T11:41:53;19.38;;;9.43;;
40152;SDS011;26371;56.992;23.912;2022-12-29T11:44:49;19.52;;;10.13;;
40152;SDS011;26371;56.992;23.912;2022-12-29T11:47:57;18.02;;;9.32;;
40152;SDS011;26371;56.992;23.912;2022-12-29T11:50:58;18.98;;;9.40;;
40152;SDS011;26371;56.992;23.912;2022-12-29T11:53:51;15.93;;;8.77;;
40152;SDS011;26371;56.992;23.912;2022-12-29T11:56:49;16.83;;;9.02;;
40152;SDS011;26371;56.992;23.912;2022-12-29T12:20:28;19.13;;;11.20;;
40152;SDS011;26371;56.992;23.912;2022-12-29T12:50:01;25.45;;;12.98;;
40152;SDS011;26371;56.992;23.912;2022-12-29T12:53:03;27.05;;;12.95;;
40152;SDS011;26371;56.992;23.912;2022-12-29T12:55:52;29.13;;;13.57;;
40152;SDS011;26371;56.992;23.912;2022-12-29T12:58:53;28.45;;;15.13;;
40152;SDS011;26371;56.992;23.912;2022-12-29T13:01:38;30.38;;;15.18;;
40152;SDS011;26371;56.992;23.912;2022-12-29T13:07:14;22.50;;;13.05;;
40152;SDS011;26371;56.992;23.912;2022-12-29T13:10:02;26.38;;;13.98;;
40152;SDS011;26371;56.992;23.912;2022-12-29T13:12:48;27.50;;;14.77;;
40152;SDS011;26371;56.992;23.912;2022-12-29T13:15:30;28.15;;;14.98;;
40152;SDS011;26371;56.992;23.912;2022-12-29T13:18:13;36.50;;;16.52;;
40152;SDS011;26371;56.992;23.912;2022-12-29T13:20:52;29.23;;;13.40;;
40152;SDS011;26371;56.992;23.912;2022-12-29T13:23:30;25.00;;;12.88;;
40152;SDS011;26371;56.992;23.912;2022-12-29T13:26:10;24.17;;;11.65;;
40152;SDS011;26371;56.992;23.912;2022-12-29T13:28:45;30.10;;;13.85;;
40152;SDS011;26371;56.992;23.912;2022-12-29T13:31:20;38.70;;;15.80;;
40152;SDS011;26371;56.992;23.912;2022-12-29T13:34:00;35.35;;;15.90;;
40152;SDS011;26371;56.992;23.912;2022-12-29T13:36:36;25.42;;;13.27;;
40152;SDS011;26371;56.992;23.912;2022-12-29T13:39:13;20.55;;;11.45;;
40152;SDS011;26371;56.992;23.912;2022-12-29T13:41:50;21.83;;;12.05;;
40152;SDS011;26371;56.992;23.912;2022-12-29T13:44:22;24.73;;;13.90;;
40152;SDS011;26371;56.992;23.912;2022-12-29T13:47:01;23.85;;;12.45;;
40152;SDS011;26371;56.992;23.912;2022-12-29T13:49:42;27.48;;;14.95;;
40152;SDS011;26371;56.992;23.912;2022-12-29T13:52:13;28.75;;;15.85;;
40152;SDS011;26371;56.992;23.912;2022-12-29T13:54:55;27.55;;;13.45;;
40152;SDS011;26371;56.992;23.912;2022-12-29T13:57:34;23.73;;;11.68;;
40152;SDS011;26371;56.992;23.912;2022-12-29T14:00:11;26.33;;;11.88;;
40152;SDS011;26371;56.992;23.912;2022-12-29T14:02:48;31.52;;;15.95;;
40152;SDS011;26371;56.992;23.912;2022-12-29T14:05:39;26.10;;;12.00;;
40152;SDS011;26371;56.992;23.912;2022-12-29T14:08:14;29.15;;;14.10;;
40152;SDS011;26371;56.992;23.912;2022-12-29T14:10:48;24.23;;;12.13;;
40152;SDS011;26371;56.992;23.912;2022-12-29T14:13:22;27.17;;;13.38;;
40152;SDS011;26371;56.992;23.912;2022-12-29T14:15:53;28.52;;;13.15;;
40152;SDS011;26371;56.992;23.912;2022-12-29T14:18:26;28.90;;;13.85;;
40152;SDS011;26371;56.992;23.912;2022-12-29T14:20:57;25.08;;;12.73;;
40152;SDS011;26371;56.992;23.912;2022-12-29T14:23:40;29.92;;;13.00;;
40152;SDS011;26371;56.992;23.912;2022-12-29T14:26:15;30.30;;;14.13;;
40152;SDS011;26371;56.992;23.912;2022-12-29T14:28:47;31.00;;;14.82;;
40152;SDS011;26371;56.992;23.912;2022-12-29T14:31:33;25.98;;;12.30;;
40152;SDS011;26371;56.992;23.912;2022-12-29T14:37:21;29.40;;;14.07;;
40152;SDS011;26371;56.992;23.912;2022-12-29T14:40:04;29.42;;;13.85;;
40152;SDS011;26371;56.992;23.912;2022-12-29T14:42:46;27.42;;;12.90;;
40152;SDS011;26371;56.992;23.912;2022-12-29T14:45:25;31.15;;;14.38;;
40152;SDS011;26371;56.992;23.912;2022-12-29T14:47:56;29.38;;;14.57;;
40152;SDS011;26371;56.992;23.912;2022-12-29T14:50:32;28.95;;;14.70;;
40152;SDS011;26371;56.992;23.912;2022-12-29T14:53:10;32.20;;;14.85;;
40152;SDS011;26371;56.992;23.912;2022-12-29T14:56:12;30.55;;;14.35;;
40152;SDS011;26371;56.992;23.912;2022-12-29T14:58:47;33.08;;;15.98;;
40152;SDS011;26371;56.992;23.912;2022-12-29T15:01:22;31.17;;;14.85;;
40152;SDS011;26371;56.992;23.912;2022-12-29T15:03:57;33.40;;;16.40;;
40152;SDS011;26371;56.992;23.912;2022-12-29T15:06:32;33.63;;;15.98;;
40152;SDS011;26371;56.992;23.912;2022-12-29T15:09:12;36.60;;;15.80;;
40152;SDS011;26371;56.992;23.912;2022-12-29T15:11:51;33.70;;;15.15;;
40152;SDS011;26371;56.992;23.912;2022-12-29T15:14:29;33.15;;;15.68;;
40152;SDS011;26371;56.992;23.912;2022-12-29T15:17:00;28.65;;;14.50;;
40152;SDS011;26371;56.992;23.912;2022-12-29T15:19:39;28.05;;;14.90;;
40152;SDS011;26371;56.992;23.912;2022-12-29T15:22:10;32.95;;;14.93;;
40152;SDS011;26371;56.992;23.912;2022-12-29T15:24:41;28.15;;;14.90;;
40152;SDS011;26371;56.992;23.912;2022-12-29T15:27:13;29.65;;;14.70;;
40152;SDS011;26371;56.992;23.912;2022-12-29T15:29:45;28.48;;;13.70;;
40152;SDS011;26371;56.992;23.912;2022-12-29T15:32:18;29.83;;;14.55;;
40152;SDS011;26371;56.992;23.912;2022-12-29T15:34:50;28.35;;;13.52;;
40152;SDS011;26371;56.992;23.912;2022-12-29T15:37:23;26.90;;;13.35;;
40152;SDS011;26371;56.992;23.912;2022-12-29T15:39:55;26.92;;;12.98;;
40152;SDS011;26371;56.992;23.912;2022-12-29T15:42:41;25.00;;;12.98;;
40152;SDS011;26371;56.992;23.912;2022-12-29T15:45:46;25.13;;;13.30;;
40152;SDS011;26371;56.992;23.912;2022-12-29T15:48:17;24.95;;;12.77;;
40152;SDS011;26371;56.992;23.912;2022-12-29T15:50:51;28.83;;;13.27;;
40152;SDS011;26371;56.992;23.912;2022-12-29T15:53:23;23.33;;;11.98;;
40152;SDS011;26371;56.992;23.912;2022-12-29T15:55:56;23.80;;;11.73;;
40152;SDS011;26371;56.992;23.912;2022-12-29T15:58:30;23.30;;;12.30;;
40152;SDS011;26371;56.992;23.912;2022-12-29T16:01:15;22.92;;;11.60;;
40152;SDS011;26371;56.992;23.912;2022-12-29T16:04:04;22.20;;;11.20;;
40152;SDS011;26371;56.992;23.912;2022-12-29T16:06:36;18.75;;;10.07;;
40152;SDS011;26371;56.992;23.912;2022-12-29T16:09:09;24.48;;;11.25;;
40152;SDS011;26371;56.992;23.912;2022-12-29T16:11:46;21.08;;;10.77;;
40152;SDS011;26371;56.992;23.912;2022-12-29T16:14:20;20.58;;;10.13;;
40152;SDS011;26371;56.992;23.912;2022-12-29T16:16:56;18.65;;;9.88;;
40152;SDS011;26371;56.992;23.912;2022-12-29T16:19:32;16.95;;;9.13;;
40152;SDS011;26371;56.992;23.912;2022-12-29T16:22:03;17.25;;;9.98;;
40152;SDS011;26371;56.992;23.912;2022-12-29T16:24:39;20.35;;;9.57;;
40152;SDS011;26371;56.992;23.912;2022-12-29T16:27:09;17.63;;;9.75;;
40152;SDS011;26371;56.992;23.912;2022-12-29T16:29:46;20.40;;;9.25;;
40152;SDS011;26371;56.992;23.912;2022-12-29T16:32:24;19.73;;;10.68;;
40152;SDS011;26371;56.992;23.912;2022-12-29T16:35:02;22.58;;;11.52;;
40152;SDS011;26371;56.992;23.912;2022-12-29T16:37:40;20.75;;;11.18;;
40152;SDS011;26371;56.992;23.912;2022-12-29T16:40:26;22.23;;;10.57;;
40152;SDS011;26371;56.992;23.912;2022-12-29T16:42:58;21.02;;;11.05;;
40152;SDS011;26371;56.992;23.912;2022-12-29T16:45:42;20.60;;;10.57;;
40152;SDS011;26371;56.992;23.912;2022-12-29T16:48:54;18.05;;;10.57;;
40152;SDS011;26371;56.992;23.912;2022-12-29T16:51:30;17.88;;;10.63;;
40152;SDS011;26371;56.992;23.912;2022-12-29T16:54:03;20.40;;;11.35;;
40152;SDS011;26371;56.992;23.912;2022-12-29T16:56:35;19.38;;;11.13;;
40152;SDS011;26371;56.992;23.912;2022-12-29T16:59:18;21.33;;;11.77;;
40152;SDS011;26371;56.992;23.912;2022-12-29T17:01:57;20.42;;;11.68;;
40152;SDS011;26371;56.992;23.912;2022-12-29T17:04:30;22.08;;;11.90;;
40152;SDS011;26371;56.992;23.912;2022-12-29T17:06:59;20.77;;;12.10;;